sensor_id;sensor_type;location;lat;lon;timestamp;pressure;altitude;pressure_sealevel;temperature;humidity
11936;BME280;6027;48.576;9.180;2023-03-30T00:00:05;96633.19;;;14.36;66.34
11936;BME280;6027;48.576;9.180;2023-03-30T00:02:41;96611.09;;;14.29;71.65
11936;BME280;6027;48.576;9.180;2023-03-30T00:05:08;96621.00;;;14.15;72.80
11936;BME280;6027;48.576;9.180;2023-03-30T00:07:35;96623.88;;;14.07;72.18
11936;BME280;6027;48.576;9.180;2023-03-30T00:10:03;96613.00;;;14.08;73.86
11936;BME280;6027;48.576;9.180;2023-03-30T00:12:28;96610.41;;;13.95;74.92
11936;BME280;6027;48.576;9.180;2023-03-30T00:14:55;96607.97;;;13.87;75.89
11936;BME280;6027;48.576;9.180;2023-03-30T00:17:20;96600.84;;;13.81;76.06
11936;BME280;6027;48.576;9.180;2023-03-30T00:19:46;96588.97;;;13.77;77.42
11936;BME280;6027;48.576;9.180;2023-03-30T00:22:11;96585.69;;;13.75;77.27
11936;BME280;6027;48.576;9.180;2023-03-30T00:24:37;96585.50;;;13.76;77.67
11936;BME280;6027;48.576;9.180;2023-03-30T00:27:03;96582.41;;;13.79;77.82
11936;BME280;6027;48.576;9.180;2023-03-30T00:29:28;96583.38;;;13.92;77.66
11936;BME280;6027;48.576;9.180;2023-03-30T00:31:54;96578.47;;;13.89;76.63
11936;BME280;6027;48.576;9.180;2023-03-30T00:34:20;96585.28;;;13.85;77.29
11936;BME280;6027;48.576;9.180;2023-03-30T00:36:45;96572.34;;;13.88;77.62
11936;BME280;6027;48.576;9.180;2023-03-30T00:39:13;96562.47;;;14.02;75.84
11936;BME280;6027;48.576;9.180;2023-03-30T00:41:43;96560.44;;;14.04;75.68
11936;BME280;6027;48.576;9.180;2023-03-30T00:47:13;96564.88;;;14.16;75.63
11936;BME280;6027;48.576;9.180;2023-03-30T00:49:39;96560.63;;;14.02;76.85
11936;BME280;6027;48.576;9.180;2023-03-30T00:52:07;96557.56;;;13.99;77.92
11936;BME280;6027;48.576;9.180;2023-03-30T00:54:33;96559.63;;;13.97;77.62
11936;BME280;6027;48.576;9.180;2023-03-30T00:56:59;96551.03;;;13.95;77.91
11936;BME280;6027;48.576;9.180;2023-03-30T00:59:24;96546.31;;;13.97;77.94
11936;BME280;6027;48.576;9.180;2023-03-30T01:01:50;96542.84;;;13.96;77.94
11936;BME280;6027;48.576;9.180;2023-03-30T01:04:16;96541.00;;;13.97;77.65
11936;BME280;6027;48.576;9.180;2023-03-30T01:06:42;96541.00;;;13.97;78.68
11936;BME280;6027;48.576;9.180;2023-03-30T01:09:12;96530.16;;;13.92;78.69
11936;BME280;6027;48.576;9.180;2023-03-30T01:11:38;96532.81;;;13.98;78.05
11936;BME280;6027;48.576;9.180;2023-03-30T01:14:08;96531.00;;;13.86;79.31
11936;BME280;6027;48.576;9.180;2023-03-30T01:28:24;96562.84;;;13.47;88.33
11936;BME280;6027;48.576;9.180;2023-03-30T01:31:03;96594.59;;;13.23;95.08
11936;BME280;6027;48.576;9.180;2023-03-30T01:43:56;96606.53;;;12.53;100.00
11936;BME280;6027;48.576;9.180;2023-03-30T01:46:49;96601.19;;;12.39;100.00
11936;BME280;6027;48.576;9.180;2023-03-30T01:49:28;96593.00;;;12.34;100.00
11936;BME280;6027;48.576;9.180;2023-03-30T01:52:02;96585.44;;;12.25;100.00
11936;BME280;6027;48.576;9.180;2023-03-30T01:54:45;96573.78;;;12.19;100.00
11936;BME280;6027;48.576;9.180;2023-03-30T01:57:20;96586.63;;;12.16;100.00
11936;BME280;6027;48.576;9.180;2023-03-30T01:59:54;96592.34;;;12.19;100.00
11936;BME280;6027;48.576;9.180;2023-03-30T02:02:23;96591.34;;;12.20;100.00
11936;BME280;6027;48.576;9.180;2023-03-30T02:04:51;96595.25;;;12.24;100.00
11936;BME280;6027;48.576;9.180;2023-03-30T02:07:23;96597.88;;;12.24;100.00
11936;BME280;6027;48.576;9.180;2023-03-30T02:09:52;96599.53;;;12.25;100.00
11936;BME280;6027;48.576;9.180;2023-03-30T02:12:20;96602.00;;;12.27;100.00
11936;BME280;6027;48.576;9.180;2023-03-30T02:14:47;96592.81;;;12.29;100.00
11936;BME280;6027;48.576;9.180;2023-03-30T02:17:19;96592.63;;;12.37;100.00
11936;BME280;6027;48.576;9.180;2023-03-30T02:19:47;96598.53;;;12.39;100.00
11936;BME280;6027;48.576;9.180;2023-03-30T02:22:14;96601.00;;;12.41;100.00
11936;BME280;6027;48.576;9.180;2023-03-30T02:24:42;96596.47;;;12.35;100.00
11936;BME280;6027;48.576;9.180;2023-03-30T02:27:08;96597.69;;;12.32;100.00
11936;BME280;6027;48.576;9.180;2023-03-30T02:29:36;96601.78;;;12.35;100.00
11936;BME280;6027;48.576;9.180;2023-03-30T02:32:03;96603.84;;;12.39;100.00
11936;BME280;6027;48.576;9.180;2023-03-30T02:37:35;96607.91;;;12.35;100.00
11936;BME280;6027;48.576;9.180;2023-03-30T02:48:17;96611.59;;;12.28;100.00
11936;BME280;6027;48.576;9.180;2023-03-30T02:53:44;96594.66;;;12.29;100.00
11936;BME280;6027;48.576;9.180;2023-03-30T02:58:48;96584.34;;;12.06;100.00
11936;BME280;6027;48.576;9.180;2023-03-30T03:03:46;96562.34;;;12.12;100.00
11936;BME280;6027;48.576;9.180;2023-03-30T03:06:13;96556.00;;;12.20;100.00
11936;BME280;6027;48.576;9.180;2023-03-30T03:08:41;96536.41;;;12.14;100.00
11936;BME280;6027;48.576;9.180;2023-03-30T03:11:08;96546.19;;;12.14;100.00
11936;BME280;6027;48.576;9.180;2023-03-30T03:13:34;96532.69;;;12.02;100.00
11936;BME280;6027;48.576;9.180;2023-03-30T03:16:04;96515.09;;;11.88;100.00
11936;BME280;6027;48.576;9.180;2023-03-30T03:18:32;96503.47;;;11.89;100.00
11936;BME280;6027;48.576;9.180;2023-03-30T03:20:59;96498.38;;;11.87;100.00
11936;BME280;6027;48.576;9.180;2023-03-30T03:23:25;96491.22;;;11.94;100.00
11936;BME280;6027;48.576;9.180;2023-03-30T03:25:51;96495.53;;;11.95;100.00
11936;BME280;6027;48.576;9.180;2023-03-30T03:28:17;96483.53;;;12.06;100.00
11936;BME280;6027;48.576;9.180;2023-03-30T03:30:42;96487.38;;;11.90;100.00
11936;BME280;6027;48.576;9.180;2023-03-30T03:33:09;96486.75;;;11.95;100.00
11936;BME280;6027;48.576;9.180;2023-03-30T03:35:35;96490.00;;;11.97;100.00
11936;BME280;6027;48.576;9.180;2023-03-30T03:38:04;96489.41;;;11.88;100.00
11936;BME280;6027;48.576;9.180;2023-03-30T03:40:30;96489.81;;;11.92;100.00
11936;BME280;6027;48.576;9.180;2023-03-30T03:42:55;96482.25;;;11.95;100.00
11936;BME280;6027;48.576;9.180;2023-03-30T03:45:22;96475.56;;;12.06;100.00
11936;BME280;6027;48.576;9.180;2023-03-30T03:47:49;96478.22;;;12.13;100.00
11936;BME280;6027;48.576;9.180;2023-03-30T03:50:15;96479.25;;;12.18;100.00
11936;BME280;6027;48.576;9.180;2023-03-30T03:52:41;96463.34;;;12.12;100.00
11936;BME280;6027;48.576;9.180;2023-03-30T03:55:06;96459.81;;;11.98;100.00
11936;BME280;6027;48.576;9.180;2023-03-30T03:57:32;96469.22;;;12.14;100.00
11936;BME280;6027;48.576;9.180;2023-03-30T03:59:57;96464.97;;;12.19;100.00
11936;BME280;6027;48.576;9.180;2023-03-30T04:02:24;96464.59;;;12.29;100.00
11936;BME280;6027;48.576;9.180;2023-03-30T04:04:50;96453.53;;;12.32;100.00
11936;BME280;6027;48.576;9.180;2023-03-30T04:07:18;96450.28;;;12.36;100.00
11936;BME280;6027;48.576;9.180;2023-03-30T04:10:02;96445.19;;;12.41;100.00
11936;BME280;6027;48.576;9.180;2023-03-30T04:12:30;96434.16;;;12.44;100.00
11936;BME280;6027;48.576;9.180;2023-03-30T04:14:56;96417.59;;;12.42;100.00
11936;BME280;6027;48.576;9.180;2023-03-30T04:17:22;96412.31;;;12.49;100.00
11936;BME280;6027;48.576;9.180;2023-03-30T04:19:51;96409.03;;;12.40;100.00
11936;BME280;6027;48.576;9.180;2023-03-30T04:22:18;96391.47;;;12.46;100.00
11936;BME280;6027;48.576;9.180;2023-03-30T04:24:44;96392.47;;;12.52;100.00
11936;BME280;6027;48.576;9.180;2023-03-30T04:27:10;96383.88;;;12.56;100.00
11936;BME280;6027;48.576;9.180;2023-03-30T04:29:41;96359.19;;;12.49;100.00
11936;BME280;6027;48.576;9.180;2023-03-30T04:32:12;96374.28;;;12.62;100.00
11936;BME280;6027;48.576;9.180;2023-03-30T04:34:38;96383.88;;;12.63;100.00
11936;BME280;6027;48.576;9.180;2023-03-30T04:37:10;96389.41;;;12.61;100.00
11936;BME280;6027;48.576;9.180;2023-03-30T04:39:35;96389.00;;;12.58;100.00
11936;BME280;6027;48.576;9.180;2023-03-30T04:42:01;96390.63;;;12.59;100.00
11936;BME280;6027;48.576;9.180;2023-03-30T04:44:30;96390.03;;;12.57;100.00
11936;BME280;6027;48.576;9.180;2023-03-30T04:46:55;96385.72;;;12.56;100.00
11936;BME280;6027;48.576;9.180;2023-03-30T04:49:21;96383.69;;;12.58;100.00
11936;BME280;6027;48.576;9.180;2023-03-30T04:51:47;96362.47;;;12.44;100.00
11936;BME280;6027;48.576;9.180;2023-03-30T04:54:13;96389.41;;;12.55;100.00
11936;BME280;6027;48.576;9.180;2023-03-30T04:56:38;96391.03;;;12.56;100.00
11936;BME280;6027;48.576;9.180;2023-03-30T04:59:04;96380.81;;;12.53;100.00
11936;BME280;6027;48.576;9.180;2023-03-30T05:01:29;96379.81;;;12.54;100.00
11936;BME280;6027;48.576;9.180;2023-03-30T05:04:06;96373.50;;;12.48;100.00
11936;BME280;6027;48.576;9.180;2023-03-30T05:06:31;96365.75;;;12.47;100.00
11936;BME280;6027;48.576;9.180;2023-03-30T05:08:57;96346.34;;;12.46;100.00
11936;BME280;6027;48.576;9.180;2023-03-30T05:11:22;96330.63;;;12.44;100.00
11936;BME280;6027;48.576;9.180;2023-03-30T05:13:52;96339.41;;;12.45;100.00
11936;BME280;6027;48.576;9.180;2023-03-30T05:16:19;96347.13;;;12.53;100.00
11936;BME280;6027;48.576;9.180;2023-03-30T05:18:44;96351.41;;;12.61;100.00
11936;BME280;6027;48.576;9.180;2023-03-30T05:21:10;96352.59;;;12.71;100.00
11936;BME280;6027;48.576;9.180;2023-03-30T05:23:36;96350.19;;;12.70;100.00
11936;BME280;6027;48.576;9.180;2023-03-30T05:26:04;96354.63;;;12.76;100.00
11936;BME280;6027;48.576;9.180;2023-03-30T05:28:32;96346.66;;;12.76;100.00
11936;BME280;6027;48.576;9.180;2023-03-30T05:30:58;96348.91;;;12.79;100.00
11936;BME280;6027;48.576;9.180;2023-03-30T05:33:23;96338.88;;;12.88;100.00
11936;BME280;6027;48.576;9.180;2023-03-30T05:35:50;96331.13;;;12.79;100.00
11936;BME280;6027;48.576;9.180;2023-03-30T05:38:16;96338.06;;;12.87;100.00
11936;BME280;6027;48.576;9.180;2023-03-30T05:40:42;96336.03;;;12.83;100.00
11936;BME280;6027;48.576;9.180;2023-03-30T05:43:09;96337.47;;;12.85;100.00
11936;BME280;6027;48.576;9.180;2023-03-30T05:45:34;96330.50;;;12.84;100.00
11936;BME280;6027;48.576;9.180;2023-03-30T05:48:00;96338.69;;;12.89;100.00
11936;BME280;6027;48.576;9.180;2023-03-30T05:50:25;96341.09;;;12.91;100.00
11936;BME280;6027;48.576;9.180;2023-03-30T05:52:51;96357.50;;;12.81;100.00
11936;BME280;6027;48.576;9.180;2023-03-30T05:55:16;96363.16;;;12.91;100.00
11936;BME280;6027;48.576;9.180;2023-03-30T05:57:42;96362.81;;;12.88;100.00
11936;BME280;6027;48.576;9.180;2023-03-30T06:00:08;96364.00;;;12.92;100.00
11936;BME280;6027;48.576;9.180;2023-03-30T06:02:35;96363.00;;;12.86;100.00
11936;BME280;6027;48.576;9.180;2023-03-30T06:05:01;96374.66;;;12.78;100.00
11936;BME280;6027;48.576;9.180;2023-03-30T06:07:27;96387.56;;;12.68;100.00
11936;BME280;6027;48.576;9.180;2023-03-30T06:09:52;96400.44;;;12.52;100.00
11936;BME280;6027;48.576;9.180;2023-03-30T06:12:18;96405.13;;;12.56;100.00
11936;BME280;6027;48.576;9.180;2023-03-30T06:14:44;96425.16;;;12.26;100.00
11936;BME280;6027;48.576;9.180;2023-03-30T06:17:09;96444.53;;;12.06;100.00
11936;BME280;6027;48.576;9.180;2023-03-30T06:19:36;96419.19;;;11.97;100.00
11936;BME280;6027;48.576;9.180;2023-03-30T06:22:03;96434.50;;;11.95;100.00
11936;BME280;6027;48.576;9.180;2023-03-30T06:24:29;96433.28;;;11.85;100.00
11936;BME280;6027;48.576;9.180;2023-03-30T06:26:55;96418.19;;;11.85;100.00
11936;BME280;6027;48.576;9.180;2023-03-30T06:29:21;96399.59;;;11.85;100.00
11936;BME280;6027;48.576;9.180;2023-03-30T06:31:47;96420.84;;;11.92;100.00
11936;BME280;6027;48.576;9.180;2023-03-30T06:34:12;96424.09;;;11.94;100.00
11936;BME280;6027;48.576;9.180;2023-03-30T06:36:38;96431.44;;;11.98;100.00
11936;BME280;6027;48.576;9.180;2023-03-30T06:39:03;96428.81;;;11.92;100.00
11936;BME280;6027;48.576;9.180;2023-03-30T06:41:30;96432.06;;;11.87;100.00
11936;BME280;6027;48.576;9.180;2023-03-30T06:43:55;96420.41;;;11.95;100.00
11936;BME280;6027;48.576;9.180;2023-03-30T06:46:21;96411.66;;;11.94;100.00
11936;BME280;6027;48.576;9.180;2023-03-30T06:48:46;96406.75;;;11.98;100.00
11936;BME280;6027;48.576;9.180;2023-03-30T06:51:12;96420.63;;;12.00;100.00
11936;BME280;6027;48.576;9.180;2023-03-30T06:53:39;96417.59;;;12.09;100.00
11936;BME280;6027;48.576;9.180;2023-03-30T06:56:05;96422.72;;;12.11;100.00
11936;BME280;6027;48.576;9.180;2023-03-30T06:58:32;96441.47;;;12.16;100.00
11936;BME280;6027;48.576;9.180;2023-03-30T07:00:58;96449.88;;;12.26;100.00
11936;BME280;6027;48.576;9.180;2023-03-30T07:03:24;96461.94;;;12.29;100.00
11936;BME280;6027;48.576;9.180;2023-03-30T07:05:51;96475.59;;;12.32;100.00
11936;BME280;6027;48.576;9.180;2023-03-30T07:08:18;96482.94;;;12.37;100.00
11936;BME280;6027;48.576;9.180;2023-03-30T07:10:45;96500.94;;;12.41;100.00
11936;BME280;6027;48.576;9.180;2023-03-30T07:13:11;96494.59;;;12.42;100.00
11936;BME280;6027;48.576;9.180;2023-03-30T07:15:36;96500.34;;;12.46;100.00
11936;BME280;6027;48.576;9.180;2023-03-30T07:18:02;96515.25;;;12.47;100.00
11936;BME280;6027;48.576;9.180;2023-03-30T07:20:28;96520.97;;;12.51;100.00
11936;BME280;6027;48.576;9.180;2023-03-30T07:22:54;96515.25;;;12.47;100.00
11936;BME280;6027;48.576;9.180;2023-03-30T07:25:19;96511.16;;;12.44;100.00
11936;BME280;6027;48.576;9.180;2023-03-30T07:27:45;96527.91;;;12.45;100.00
11936;BME280;6027;48.576;9.180;2023-03-30T07:30:12;96534.44;;;12.49;100.00
11936;BME280;6027;48.576;9.180;2023-03-30T07:32:39;96534.66;;;12.48;100.00
11936;BME280;6027;48.576;9.180;2023-03-30T07:35:05;96541.78;;;12.54;100.00
11936;BME280;6027;48.576;9.180;2023-03-30T07:37:30;96544.25;;;12.55;100.00
11936;BME280;6027;48.576;9.180;2023-03-30T07:39:56;96551.00;;;12.58;100.00
11936;BME280;6027;48.576;9.180;2023-03-30T07:42:22;96552.03;;;12.70;100.00
11936;BME280;6027;48.576;9.180;2023-03-30T07:44:48;96526.28;;;12.77;100.00
11936;BME280;6027;48.576;9.180;2023-03-30T07:47:13;96516.06;;;12.80;100.00
11936;BME280;6027;48.576;9.180;2023-03-30T07:49:39;96529.38;;;12.87;100.00
11936;BME280;6027;48.576;9.180;2023-03-30T07:52:05;96504.00;;;12.91;100.00
11936;BME280;6027;48.576;9.180;2023-03-30T07:56:59;96497.25;;;13.02;100.00
11936;BME280;6027;48.576;9.180;2023-03-30T07:59:25;96509.50;;;13.09;100.00
11936;BME280;6027;48.576;9.180;2023-03-30T08:01:51;96539.97;;;13.07;100.00
11936;BME280;6027;48.576;9.180;2023-03-30T08:04:19;96556.97;;;13.19;100.00
11936;BME280;6027;48.576;9.180;2023-03-30T08:06:44;96539.16;;;13.06;100.00
11936;BME280;6027;48.576;9.180;2023-03-30T08:09:10;96545.28;;;13.07;100.00
11936;BME280;6027;48.576;9.180;2023-03-30T08:11:36;96550.63;;;13.20;100.00
11936;BME280;6027;48.576;9.180;2023-03-30T08:14:03;96543.06;;;13.24;100.00
11936;BME280;6027;48.576;9.180;2023-03-30T08:16:28;96554.31;;;13.26;100.00
11936;BME280;6027;48.576;9.180;2023-03-30T08:18:54;96560.63;;;13.31;100.00
11936;BME280;6027;48.576;9.180;2023-03-30T08:21:23;96573.28;;;13.29;100.00
11936;BME280;6027;48.576;9.180;2023-03-30T08:23:54;96584.34;;;13.20;100.00
11936;BME280;6027;48.576;9.180;2023-03-30T08:26:26;96608.28;;;13.20;100.00
11936;BME280;6027;48.576;9.180;2023-03-30T08:28:55;96594.34;;;13.04;100.00
11936;BME280;6027;48.576;9.180;2023-03-30T08:31:21;96601.28;;;12.92;100.00
11936;BME280;6027;48.576;9.180;2023-03-30T08:33:47;96591.28;;;12.94;100.00
11936;BME280;6027;48.576;9.180;2023-03-30T08:36:13;96605.38;;;12.95;100.00
11936;BME280;6027;48.576;9.180;2023-03-30T08:38:39;96618.25;;;12.91;100.00
11936;BME280;6027;48.576;9.180;2023-03-30T08:43:51;96611.91;;;12.79;100.00
11936;BME280;6027;48.576;9.180;2023-03-30T08:46:20;96615.00;;;12.89;100.00
11936;BME280;6027;48.576;9.180;2023-03-30T08:48:46;96619.47;;;12.75;100.00
11936;BME280;6027;48.576;9.180;2023-03-30T08:51:22;96629.09;;;12.83;100.00
11936;BME280;6027;48.576;9.180;2023-03-30T08:53:55;96619.69;;;12.87;100.00
11936;BME280;6027;48.576;9.180;2023-03-30T08:56:31;96615.19;;;12.88;100.00
11936;BME280;6027;48.576;9.180;2023-03-30T09:02:02;96642.38;;;12.83;100.00
11936;BME280;6027;48.576;9.180;2023-03-30T09:07:19;96627.38;;;12.56;100.00
11936;BME280;6027;48.576;9.180;2023-03-30T09:09:47;96619.75;;;12.26;100.00
11936;BME280;6027;48.576;9.180;2023-03-30T09:15:41;96608.03;;;12.14;100.00
11936;BME280;6027;48.576;9.180;2023-03-30T09:18:21;96598.16;;;11.88;100.00
11936;BME280;6027;48.576;9.180;2023-03-30T09:20:50;96578.91;;;11.80;100.00
11936;BME280;6027;48.576;9.180;2023-03-30T09:23:17;96568.03;;;11.74;100.00
11936;BME280;6027;48.576;9.180;2023-03-30T09:28:23;96581.31;;;11.74;100.00
11936;BME280;6027;48.576;9.180;2023-03-30T09:31:26;96552.13;;;11.74;100.00
11936;BME280;6027;48.576;9.180;2023-03-30T09:34:03;96544.63;;;11.78;100.00
11936;BME280;6027;48.576;9.180;2023-03-30T09:39:19;96582.94;;;11.69;100.00
11936;BME280;6027;48.576;9.180;2023-03-30T09:41:50;96558.25;;;11.75;100.00
11936;BME280;6027;48.576;9.180;2023-03-30T09:44:26;96570.09;;;11.72;100.00
11936;BME280;6027;48.576;9.180;2023-03-30T09:46:57;96562.31;;;11.64;100.00
11936;BME280;6027;48.576;9.180;2023-03-30T09:49:26;96565.97;;;11.63;100.00
11936;BME280;6027;48.576;9.180;2023-03-30T09:52:00;96565.19;;;11.69;100.00
11936;BME280;6027;48.576;9.180;2023-03-30T09:54:37;96552.41;;;11.80;100.00
11936;BME280;6027;48.576;9.180;2023-03-30T09:57:04;96564.81;;;11.72;100.00
11936;BME280;6027;48.576;9.180;2023-03-30T09:59:33;96564.84;;;11.79;100.00
11936;BME280;6027;48.576;9.180;2023-03-30T10:02:19;96587.31;;;11.83;100.00
11936;BME280;6027;48.576;9.180;2023-03-30T10:04:53;96588.13;;;11.84;100.00
11936;BME280;6027;48.576;9.180;2023-03-30T10:07:24;96576.13;;;11.88;100.00
11936;BME280;6027;48.576;9.180;2023-03-30T10:09:51;96580.84;;;11.92;100.00
11936;BME280;6027;48.576;9.180;2023-03-30T10:12:17;96579.41;;;11.96;100.00
11936;BME280;6027;48.576;9.180;2023-03-30T10:14:43;96576.16;;;12.01;100.00
11936;BME280;6027;48.576;9.180;2023-03-30T10:17:21;96576.16;;;12.01;100.00
11936;BME280;6027;48.576;9.180;2023-03-30T10:19:54;96577.63;;;12.10;100.00
11936;BME280;6027;48.576;9.180;2023-03-30T10:22:48;96576.41;;;12.06;100.00
11936;BME280;6027;48.576;9.180;2023-03-30T10:25:21;96576.81;;;12.09;100.00
11936;BME280;6027;48.576;9.180;2023-03-30T10:27:51;96570.84;;;12.01;100.00
11936;BME280;6027;48.576;9.180;2023-03-30T10:30:22;96577.84;;;12.15;100.00
11936;BME280;6027;48.576;9.180;2023-03-30T10:32:49;96576.00;;;12.16;100.00
11936;BME280;6027;48.576;9.180;2023-03-30T10:35:24;96576.03;;;12.22;100.00
11936;BME280;6027;48.576;9.180;2023-03-30T10:37:52;96581.94;;;12.18;100.00
11936;BME280;6027;48.576;9.180;2023-03-30T10:40:32;96578.03;;;12.14;100.00
11936;BME280;6027;48.576;9.180;2023-03-30T10:42:59;96580.53;;;12.22;100.00
11936;BME280;6027;48.576;9.180;2023-03-30T10:45:36;96572.75;;;12.20;100.00
11936;BME280;6027;48.576;9.180;2023-03-30T10:50:56;96565.03;;;12.32;100.00
11936;BME280;6027;48.576;9.180;2023-03-30T10:53:52;96573.00;;;12.25;100.00
11936;BME280;6027;48.576;9.180;2023-03-30T11:04:44;96570.13;;;12.27;100.00
11936;BME280;6027;48.576;9.180;2023-03-30T11:09:50;96583.22;;;12.28;100.00
11936;BME280;6027;48.576;9.180;2023-03-30T11:12:19;96580.34;;;12.30;100.00
11936;BME280;6027;48.576;9.180;2023-03-30T11:15:02;96595.47;;;12.29;100.00
11936;BME280;6027;48.576;9.180;2023-03-30T11:20:26;96577.66;;;12.23;100.00
11936;BME280;6027;48.576;9.180;2023-03-30T11:23:05;96578.09;;;12.27;100.00
11936;BME280;6027;48.576;9.180;2023-03-30T11:26:01;96571.34;;;12.24;100.00
11936;BME280;6027;48.576;9.180;2023-03-30T11:33:49;96578.09;;;12.33;100.00
11936;BME280;6027;48.576;9.180;2023-03-30T11:36:22;96568.09;;;12.35;100.00
11936;BME280;6027;48.576;9.180;2023-03-30T11:39:02;96563.63;;;12.42;100.00
11936;BME280;6027;48.576;9.180;2023-03-30T11:41:42;96564.25;;;12.44;100.00
11936;BME280;6027;48.576;9.180;2023-03-30T11:44:09;96573.88;;;12.59;100.00
11936;BME280;6027;48.576;9.180;2023-03-30T11:47:04;96582.47;;;12.61;100.00
11936;BME280;6027;48.576;9.180;2023-03-30T11:50:12;96580.81;;;12.60;100.00
11936;BME280;6027;48.576;9.180;2023-03-30T11:52:53;96545.88;;;12.56;100.00
11936;BME280;6027;48.576;9.180;2023-03-30T11:55:50;96522.00;;;12.63;100.00
11936;BME280;6027;48.576;9.180;2023-03-30T12:04:08;96546.91;;;12.75;100.00
11936;BME280;6027;48.576;9.180;2023-03-30T12:06:39;96553.06;;;12.82;100.00
11936;BME280;6027;48.576;9.180;2023-03-30T12:09:22;96575.13;;;12.83;100.00
11936;BME280;6027;48.576;9.180;2023-03-30T12:14:51;96558.38;;;12.89;100.00
11936;BME280;6027;48.576;9.180;2023-03-30T12:17:44;96555.28;;;12.92;100.00
11936;BME280;6027;48.576;9.180;2023-03-30T12:26:00;96562.25;;;12.99;100.00
11936;BME280;6027;48.576;9.180;2023-03-30T12:31:17;96572.50;;;13.16;100.00
11936;BME280;6027;48.576;9.180;2023-03-30T12:33:49;96552.06;;;13.16;100.00
11936;BME280;6027;48.576;9.180;2023-03-30T12:38:58;96542.84;;;13.25;100.00
11936;BME280;6027;48.576;9.180;2023-03-30T12:41:47;96548.97;;;13.19;100.00
11936;BME280;6027;48.576;9.180;2023-03-30T12:44:30;96550.63;;;13.27;100.00
11936;BME280;6027;48.576;9.180;2023-03-30T12:50:30;96538.53;;;13.44;100.00
11936;BME280;6027;48.576;9.180;2023-03-30T13:01:50;96509.38;;;13.69;100.00
11936;BME280;6027;48.576;9.180;2023-03-30T13:04:12;96506.50;;;13.70;100.00
11936;BME280;6027;48.576;9.180;2023-03-30T13:07:01;96518.34;;;13.81;100.00
11936;BME280;6027;48.576;9.180;2023-03-30T13:09:34;96514.13;;;14.05;100.00
11936;BME280;6027;48.576;9.180;2023-03-30T13:21:47;96493.31;;;13.95;100.00
11936;BME280;6027;48.576;9.180;2023-03-30T13:29:38;96484.22;;;14.09;100.00
11936;BME280;6027;48.576;9.180;2023-03-30T13:40:33;96476.78;;;14.81;100.00
11936;BME280;6027;48.576;9.180;2023-03-30T13:48:38;96471.03;;;15.20;87.33
11936;BME280;6027;48.576;9.180;2023-03-30T13:51:15;96472.75;;;15.15;77.97
11936;BME280;6027;48.576;9.180;2023-03-30T13:53:51;96473.19;;;15.12;78.74
11936;BME280;6027;48.576;9.180;2023-03-30T13:56:18;96471.38;;;15.31;77.10
11936;BME280;6027;48.576;9.180;2023-03-30T13:58:50;96471.22;;;15.44;72.83
11936;BME280;6027;48.576;9.180;2023-03-30T14:01:22;96474.19;;;15.36;71.92
11936;BME280;6027;48.576;9.180;2023-03-30T14:03:49;96463.59;;;15.47;73.17
11936;BME280;6027;48.576;9.180;2023-03-30T14:06:19;96487.94;;;15.58;67.15
11936;BME280;6027;48.576;9.180;2023-03-30T14:08:49;96483.69;;;15.68;67.05
11936;BME280;6027;48.576;9.180;2023-03-30T14:14:05;96478.63;;;15.42;68.21
11936;BME280;6027;48.576;9.180;2023-03-30T14:16:33;96498.31;;;15.23;68.34
11936;BME280;6027;48.576;9.180;2023-03-30T14:19:11;96486.78;;;15.29;69.46
11936;BME280;6027;48.576;9.180;2023-03-30T14:21:43;96489.13;;;15.00;69.15
11936;BME280;6027;48.576;9.180;2023-03-30T14:24:17;96493.56;;;15.06;69.23
11936;BME280;6027;48.576;9.180;2023-03-30T14:26:46;96494.09;;;15.15;70.68
11936;BME280;6027;48.576;9.180;2023-03-30T14:29:19;96486.66;;;14.99;69.94
11936;BME280;6027;48.576;9.180;2023-03-30T14:31:48;96494.06;;;14.97;74.04
11936;BME280;6027;48.576;9.180;2023-03-30T14:34:29;96483.63;;;14.95;74.95
11936;BME280;6027;48.576;9.180;2023-03-30T14:36:59;96489.22;;;14.87;74.18
11936;BME280;6027;48.576;9.180;2023-03-30T14:39:25;96485.94;;;14.85;73.82
11936;BME280;6027;48.576;9.180;2023-03-30T14:41:52;96499.13;;;14.80;75.72
11936;BME280;6027;48.576;9.180;2023-03-30T14:44:21;96487.31;;;14.69;72.81
11936;BME280;6027;48.576;9.180;2023-03-30T14:46:49;96495.41;;;14.56;74.30
11936;BME280;6027;48.576;9.180;2023-03-30T14:49:25;96480.69;;;14.54;73.15
11936;BME280;6027;48.576;9.180;2023-03-30T14:52:07;96482.56;;;14.46;74.04
11936;BME280;6027;48.576;9.180;2023-03-30T14:54:33;96496.22;;;14.57;73.72
11936;BME280;6027;48.576;9.180;2023-03-30T14:57:02;96491.41;;;14.72;72.57
11936;BME280;6027;48.576;9.180;2023-03-30T14:59:34;96504.72;;;14.72;68.43
11936;BME280;6027;48.576;9.180;2023-03-30T15:02:03;96503.47;;;14.74;67.95
11936;BME280;6027;48.576;9.180;2023-03-30T15:06:56;96516.97;;;14.48;67.43
11936;BME280;6027;48.576;9.180;2023-03-30T15:09:23;96541.81;;;14.35;69.44
11936;BME280;6027;48.576;9.180;2023-03-30T15:11:58;96524.44;;;14.26;69.30
11936;BME280;6027;48.576;9.180;2023-03-30T15:14:26;96523.69;;;14.19;69.51
11936;BME280;6027;48.576;9.180;2023-03-30T15:16:54;96528.84;;;14.14;69.86
11936;BME280;6027;48.576;9.180;2023-03-30T15:19:26;96533.34;;;14.13;71.43
11936;BME280;6027;48.576;9.180;2023-03-30T15:21:56;96527.00;;;14.14;71.08
11936;BME280;6027;48.576;9.180;2023-03-30T15:24:27;96536.41;;;14.17;74.48
11936;BME280;6027;48.576;9.180;2023-03-30T15:26:55;96535.59;;;14.10;75.04
11936;BME280;6027;48.576;9.180;2023-03-30T15:29:23;96533.97;;;14.09;72.08
11936;BME280;6027;48.576;9.180;2023-03-30T15:32:06;96524.94;;;14.16;72.23
11936;BME280;6027;48.576;9.180;2023-03-30T15:34:35;96520.63;;;14.15;70.69
11936;BME280;6027;48.576;9.180;2023-03-30T15:37:01;96521.25;;;14.11;72.02
11936;BME280;6027;48.576;9.180;2023-03-30T15:39:30;96520.31;;;13.99;71.88
11936;BME280;6027;48.576;9.180;2023-03-30T15:42:05;96522.19;;;13.92;71.77
11936;BME280;6027;48.576;9.180;2023-03-30T15:44:36;96525.31;;;13.82;69.99
11936;BME280;6027;48.576;9.180;2023-03-30T15:47:02;96525.72;;;13.79;72.37